sensor_id;sensor_type;location;lat;lon;timestamp;temperature;humidity
22532;DHT22;11432;46.924;7.114;2023-12-07T00:00:36;2.40;67.70
22532;DHT22;11432;46.924;7.114;2023-12-07T00:03:01;2.30;91.40
22532;DHT22;11432;46.924;7.114;2023-12-07T00:05:27;2.20;99.90
22532;DHT22;11432;46.924;7.114;2023-12-07T00:07:53;2.20;99.90
22532;DHT22;11432;46.924;7.114;2023-12-07T00:10:18;2.10;99.90
22532;DHT22;11432;46.924;7.114;2023-12-07T00:12:44;2.10;99.90
22532;DHT22;11432;46.924;7.114;2023-12-07T00:15:10;2.00;99.90
22532;DHT22;11432;46.924;7.114;2023-12-07T00:17:35;2.00;99.90
22532;DHT22;11432;46.924;7.114;2023-12-07T00:20:01;2.00;99.90
22532;DHT22;11432;46.924;7.114;2023-12-07T00:22:27;1.90;99.90
22532;DHT22;11432;46.924;7.114;2023-12-07T00:24:53;1.80;99.90
22532;DHT22;11432;46.924;7.114;2023-12-07T00:27:19;1.80;99.90
22532;DHT22;11432;46.924;7.114;2023-12-07T00:29:45;1.70;99.90
22532;DHT22;11432;46.924;7.114;2023-12-07T00:32:10;1.60;99.90
22532;DHT22;11432;46.924;7.114;2023-12-07T00:34:36;1.60;99.90
22532;DHT22;11432;46.924;7.114;2023-12-07T00:37:01;1.60;99.90
22532;DHT22;11432;46.924;7.114;2023-12-07T00:39:28;1.60;99.90
22532;DHT22;11432;46.924;7.114;2023-12-07T00:41:54;1.60;99.90
22532;DHT22;11432;46.924;7.114;2023-12-07T00:44:19;1.50;99.90
22532;DHT22;11432;46.924;7.114;2023-12-07T00:46:45;1.50;99.90
22532;DHT22;11432;46.924;7.114;2023-12-07T00:49:11;1.40;99.90
22532;DHT22;11432;46.924;7.114;2023-12-07T00:51:37;1.40;99.90
22532;DHT22;11432;46.924;7.114;2023-12-07T00:54:03;1.40;99.90
22532;DHT22;11432;46.924;7.114;2023-12-07T00:56:28;1.40;99.90
22532;DHT22;11432;46.924;7.114;2023-12-07T00:58:54;1.30;99.90
22532;DHT22;11432;46.924;7.114;2023-12-07T01:01:20;1.30;99.90
22532;DHT22;11432;46.924;7.114;2023-12-07T01:03:45;1.30;99.90
22532;DHT22;11432;46.924;7.114;2023-12-07T01:06:11;1.30;99.90
22532;DHT22;11432;46.924;7.114;2023-12-07T01:08:37;1.20;99.90
22532;DHT22;11432;46.924;7.114;2023-12-07T01:11:04;1.30;99.90
22532;DHT22;11432;46.924;7.114;2023-12-07T01:13:29;1.30;99.90
22532;DHT22;11432;46.924;7.114;2023-12-07T01:15:55;1.30;99.90
22532;DHT22;11432;46.924;7.114;2023-12-07T01:18:21;1.30;99.90
22532;DHT22;11432;46.924;7.114;2023-12-07T01:20:47;1.20;99.90
22532;DHT22;11432;46.924;7.114;2023-12-07T01:23:13;1.20;99.90
22532;DHT22;11432;46.924;7.114;2023-12-07T01:25:39;1.10;99.90
22532;DHT22;11432;46.924;7.114;2023-12-07T01:28:05;1.10;99.90
22532;DHT22;11432;46.924;7.114;2023-12-07T01:30:30;1.10;99.90
22532;DHT22;11432;46.924;7.114;2023-12-07T01:32:56;1.10;99.90
22532;DHT22;11432;46.924;7.114;2023-12-07T01:35:22;1.10;99.90
22532;DHT22;11432;46.924;7.114;2023-12-07T01:37:47;1.10;99.90
22532;DHT22;11432;46.924;7.114;2023-12-07T01:40:13;1.10;99.90
22532;DHT22;11432;46.924;7.114;2023-12-07T01:42:40;1.10;99.90
22532;DHT22;11432;46.924;7.114;2023-12-07T01:45:06;1.10;99.90
22532;DHT22;11432;46.924;7.114;2023-12-07T01:47:34;1.00;99.90
22532;DHT22;11432;46.924;7.114;2023-12-07T01:50:00;1.00;99.90
22532;DHT22;11432;46.924;7.114;2023-12-07T01:52:29;1.00;99.90
22532;DHT22;11432;46.924;7.114;2023-12-07T01:54:56;1.00;99.90
22532;DHT22;11432;46.924;7.114;2023-12-07T01:57:22;1.00;99.90
22532;DHT22;11432;46.924;7.114;2023-12-07T01:59:48;0.90;99.90
22532;DHT22;11432;46.924;7.114;2023-12-07T02:02:14;0.90;99.90
22532;DHT22;11432;46.924;7.114;2023-12-07T02:04:40;0.90;99.90
22532;DHT22;11432;46.924;7.114;2023-12-07T02:07:06;0.80;99.90
22532;DHT22;11432;46.924;7.114;2023-12-07T02:09:32;0.80;99.90
22532;DHT22;11432;46.924;7.114;2023-12-07T02:11:57;0.80;99.90
22532;DHT22;11432;46.924;7.114;2023-12-07T02:14:23;0.80;99.90
22532;DHT22;11432;46.924;7.114;2023-12-07T02:16:54;0.70;99.90
22532;DHT22;11432;46.924;7.114;2023-12-07T02:22:18;0.70;99.90
22532;DHT22;11432;46.924;7.114;2023-12-07T02:25:07;0.60;99.90
22532;DHT22;11432;46.924;7.114;2023-12-07T02:32:26;0.50;99.90
22532;DHT22;11432;46.924;7.114;2023-12-07T02:34:52;0.60;99.90
22532;DHT22;11432;46.924;7.114;2023-12-07T02:37:18;0.60;99.90
22532;DHT22;11432;46.924;7.114;2023-12-07T02:39:45;0.60;99.90
22532;DHT22;11432;46.924;7.114;2023-12-07T02:42:11;0.50;99.90
22532;DHT22;11432;46.924;7.114;2023-12-07T02:44:39;0.50;99.90
22532;DHT22;11432;46.924;7.114;2023-12-07T02:47:05;0.60;99.90
22532;DHT22;11432;46.924;7.114;2023-12-07T02:49:31;0.60;99.90
22532;DHT22;11432;46.924;7.114;2023-12-07T02:51:56;0.60;99.90
22532;DHT22;11432;46.924;7.114;2023-12-07T02:54:22;0.60;99.90
22532;DHT22;11432;46.924;7.114;2023-12-07T02:56:48;0.50;99.90
22532;DHT22;11432;46.924;7.114;2023-12-07T02:59:14;0.50;99.90
22532;DHT22;11432;46.924;7.114;2023-12-07T03:01:39;0.60;99.90
22532;DHT22;11432;46.924;7.114;2023-12-07T03:04:05;0.60;99.90
22532;DHT22;11432;46.924;7.114;2023-12-07T03:06:30;0.50;99.90
22532;DHT22;11432;46.924;7.114;2023-12-07T03:08:56;0.60;99.90
22532;DHT22;11432;46.924;7.114;2023-12-07T03:11:22;0.50;99.90
22532;DHT22;11432;46.924;7.114;2023-12-07T03:13:47;0.50;99.90
22532;DHT22;11432;46.924;7.114;2023-12-07T03:16:13;0.50;99.90
22532;DHT22;11432;46.924;7.114;2023-12-07T03:18:38;0.50;99.90
22532;DHT22;11432;46.924;7.114;2023-12-07T03:21:04;0.50;99.90
22532;DHT22;11432;46.924;7.114;2023-12-07T03:23:29;0.50;99.90
22532;DHT22;11432;46.924;7.114;2023-12-07T03:25:55;0.50;99.90
22532;DHT22;11432;46.924;7.114;2023-12-07T03:28:21;0.50;99.90
22532;DHT22;11432;46.924;7.114;2023-12-07T03:30:46;0.50;99.90
22532;DHT22;11432;46.924;7.114;2023-12-07T03:33:12;0.40;99.90
22532;DHT22;11432;46.924;7.114;2023-12-07T03:35:38;0.40;99.90
22532;DHT22;11432;46.924;7.114;2023-12-07T03:38:03;0.40;99.90
22532;DHT22;11432;46.924;7.114;2023-12-07T03:40:29;0.40;99.90
22532;DHT22;11432;46.924;7.114;2023-12-07T03:42:54;0.80;99.90
22532;DHT22;11432;46.924;7.114;2023-12-07T03:45:20;0.70;99.90
22532;DHT22;11432;46.924;7.114;2023-12-07T03:47:45;0.60;99.90
22532;DHT22;11432;46.924;7.114;2023-12-07T03:50:11;0.30;99.90
22532;DHT22;11432;46.924;7.114;2023-12-07T03:52:37;0.40;99.90
22532;DHT22;11432;46.924;7.114;2023-12-07T03:55:02;0.30;99.90
22532;DHT22;11432;46.924;7.114;2023-12-07T03:57:28;0.20;99.90
22532;DHT22;11432;46.924;7.114;2023-12-07T03:59:53;0.20;99.90
22532;DHT22;11432;46.924;7.114;2023-12-07T04:02:19;0.10;99.90
22532;DHT22;11432;46.924;7.114;2023-12-07T04:04:45;0.00;99.90
22532;DHT22;11432;46.924;7.114;2023-12-07T04:07:10;0.00;99.90
22532;DHT22;11432;46.924;7.114;2023-12-07T04:09:36;0.00;99.90
22532;DHT22;11432;46.924;7.114;2023-12-07T04:12:01;-0.10;99.90
22532;DHT22;11432;46.924;7.114;2023-12-07T04:14:27;-0.20;99.90
22532;DHT22;11432;46.924;7.114;2023-12-07T04:16:53;-0.20;99.90
22532;DHT22;11432;46.924;7.114;2023-12-07T04:19:18;-0.20;99.90
22532;DHT22;11432;46.924;7.114;2023-12-07T04:21:44;-0.20;99.90
22532;DHT22;11432;46.924;7.114;2023-12-07T04:24:10;-0.10;99.90
22532;DHT22;11432;46.924;7.114;2023-12-07T04:26:35;-0.20;99.90
22532;DHT22;11432;46.924;7.114;2023-12-07T04:29:01;-0.20;99.90
22532;DHT22;11432;46.924;7.114;2023-12-07T04:31:26;-0.20;99.90
22532;DHT22;11432;46.924;7.114;2023-12-07T04:33:52;-0.20;99.90
22532;DHT22;11432;46.924;7.114;2023-12-07T04:36:17;-0.20;99.90
22532;DHT22;11432;46.924;7.114;2023-12-07T04:38:43;-0.20;99.90
22532;DHT22;11432;46.924;7.114;2023-12-07T04:41:09;-0.30;99.90
22532;DHT22;11432;46.924;7.114;2023-12-07T04:43:34;-0.30;99.90
22532;DHT22;11432;46.924;7.114;2023-12-07T04:46:00;-0.30;99.90
22532;DHT22;11432;46.924;7.114;2023-12-07T04:48:25;-0.20;99.90
22532;DHT22;11432;46.924;7.114;2023-12-07T04:50:51;-0.20;99.90
22532;DHT22;11432;46.924;7.114;2023-12-07T04:53:17;-0.20;99.90
22532;DHT22;11432;46.924;7.114;2023-12-07T04:55:42;-0.20;99.90
22532;DHT22;11432;46.924;7.114;2023-12-07T04:58:12;-0.20;99.90
22532;DHT22;11432;46.924;7.114;2023-12-07T05:00:38;-0.30;99.90
22532;DHT22;11432;46.924;7.114;2023-12-07T05:03:04;-0.30;99.90
22532;DHT22;11432;46.924;7.114;2023-12-07T05:05:29;-0.30;99.90
22532;DHT22;11432;46.924;7.114;2023-12-07T05:07:55;-0.30;99.90
22532;DHT22;11432;46.924;7.114;2023-12-07T05:10:21;-0.30;99.90
22532;DHT22;11432;46.924;7.114;2023-12-07T05:12:46;-0.30;99.90
22532;DHT22;11432;46.924;7.114;2023-12-07T05:15:12;-0.40;99.90
22532;DHT22;11432;46.924;7.114;2023-12-07T05:17:38;-0.50;99.90
22532;DHT22;11432;46.924;7.114;2023-12-07T05:20:04;-0.60;99.90
22532;DHT22;11432;46.924;7.114;2023-12-07T05:22:30;-0.60;99.90
22532;DHT22;11432;46.924;7.114;2023-12-07T05:24:56;-0.60;99.90
22532;DHT22;11432;46.924;7.114;2023-12-07T05:27:22;-0.60;99.90
22532;DHT22;11432;46.924;7.114;2023-12-07T05:29:47;-0.60;99.90
22532;DHT22;11432;46.924;7.114;2023-12-07T05:32:13;-0.60;99.90
22532;DHT22;11432;46.924;7.114;2023-12-07T05:34:38;-0.60;99.90
22532;DHT22;11432;46.924;7.114;2023-12-07T05:37:04;-0.60;99.90
22532;DHT22;11432;46.924;7.114;2023-12-07T05:39:30;-0.60;99.90
22532;DHT22;11432;46.924;7.114;2023-12-07T05:41:55;-0.60;99.90
22532;DHT22;11432;46.924;7.114;2023-12-07T05:44:21;-0.50;99.90
22532;DHT22;11432;46.924;7.114;2023-12-07T05:46:48;-0.50;99.90
22532;DHT22;11432;46.924;7.114;2023-12-07T05:49:14;-0.50;99.90
22532;DHT22;11432;46.924;7.114;2023-12-07T05:51:39;-0.50;99.90
22532;DHT22;11432;46.924;7.114;2023-12-07T05:54:05;-0.40;99.90
22532;DHT22;11432;46.924;7.114;2023-12-07T05:56:31;-0.40;99.90
22532;DHT22;11432;46.924;7.114;2023-12-07T05:58:57;-0.40;99.90
22532;DHT22;11432;46.924;7.114;2023-12-07T06:01:22;-0.50;99.90
22532;DHT22;11432;46.924;7.114;2023-12-07T06:03:49;-0.50;99.90
22532;DHT22;11432;46.924;7.114;2023-12-07T06:06:15;-0.60;99.90
22532;DHT22;11432;46.924;7.114;2023-12-07T06:08:41;-0.60;99.90
22532;DHT22;11432;46.924;7.114;2023-12-07T06:11:07;-0.60;99.90
22532;DHT22;11432;46.924;7.114;2023-12-07T06:13:33;-0.60;99.90
22532;DHT22;11432;46.924;7.114;2023-12-07T06:15:59;-0.70;99.90
22532;DHT22;11432;46.924;7.114;2023-12-07T06:18:24;-0.70;99.90
22532;DHT22;11432;46.924;7.114;2023-12-07T06:20:50;-0.70;99.90
22532;DHT22;11432;46.924;7.114;2023-12-07T06:23:16;-0.70;99.90
22532;DHT22;11432;46.924;7.114;2023-12-07T06:25:41;-0.70;99.90
22532;DHT22;11432;46.924;7.114;2023-12-07T06:28:07;-0.70;99.90
22532;DHT22;11432;46.924;7.114;2023-12-07T06:30:33;-0.60;99.90
22532;DHT22;11432;46.924;7.114;2023-12-07T06:32:58;-0.70;99.90
22532;DHT22;11432;46.924;7.114;2023-12-07T06:35:24;-0.70;99.90
22532;DHT22;11432;46.924;7.114;2023-12-07T06:37:50;-0.70;99.90
22532;DHT22;11432;46.924;7.114;2023-12-07T06:40:15;-0.80;99.90
22532;DHT22;11432;46.924;7.114;2023-12-07T06:42:41;-0.70;99.90
22532;DHT22;11432;46.924;7.114;2023-12-07T06:45:07;-0.70;99.90
22532;DHT22;11432;46.924;7.114;2023-12-07T06:47:42;-0.70;99.90
22532;DHT22;11432;46.924;7.114;2023-12-07T06:50:08;-0.80;99.90
22532;DHT22;11432;46.924;7.114;2023-12-07T06:52:38;-0.80;99.90
22532;DHT22;11432;46.924;7.114;2023-12-07T06:55:04;-0.80;99.90
22532;DHT22;11432;46.924;7.114;2023-12-07T06:57:30;-0.70;99.90
22532;DHT22;11432;46.924;7.114;2023-12-07T06:59:57;-0.80;99.90
22532;DHT22;11432;46.924;7.114;2023-12-07T07:02:23;-0.80;99.90
22532;DHT22;11432;46.924;7.114;2023-12-07T07:04:49;-0.80;99.90
22532;DHT22;11432;46.924;7.114;2023-12-07T07:07:15;-0.90;99.90
22532;DHT22;11432;46.924;7.114;2023-12-07T07:09:41;-0.90;99.90
22532;DHT22;11432;46.924;7.114;2023-12-07T07:12:06;-0.80;99.90
22532;DHT22;11432;46.924;7.114;2023-12-07T07:14:32;-0.80;99.90
22532;DHT22;11432;46.924;7.114;2023-12-07T07:16:58;-0.80;99.90
22532;DHT22;11432;46.924;7.114;2023-12-07T07:19:23;-0.80;99.90
22532;DHT22;11432;46.924;7.114;2023-12-07T07:21:49;-0.80;99.90
22532;DHT22;11432;46.924;7.114;2023-12-07T07:24:15;-0.80;99.90
22532;DHT22;11432;46.924;7.114;2023-12-07T07:26:41;-0.80;99.90
22532;DHT22;11432;46.924;7.114;2023-12-07T07:29:06;-0.70;99.90
22532;DHT22;11432;46.924;7.114;2023-12-07T07:31:32;-0.70;99.90
22532;DHT22;11432;46.924;7.114;2023-12-07T07:33:58;-0.60;99.90
22532;DHT22;11432;46.924;7.114;2023-12-07T07:36:23;-0.60;99.90
22532;DHT22;11432;46.924;7.114;2023-12-07T07:38:49;-0.50;99.90
22532;DHT22;11432;46.924;7.114;2023-12-07T07:41:14;-0.50;99.90
22532;DHT22;11432;46.924;7.114;2023-12-07T07:43:40;-0.40;99.90
22532;DHT22;11432;46.924;7.114;2023-12-07T07:46:06;-0.40;99.90
22532;DHT22;11432;46.924;7.114;2023-12-07T07:48:32;-0.30;99.90
22532;DHT22;11432;46.924;7.114;2023-12-07T07:50:57;0.30;99.90
22532;DHT22;11432;46.924;7.114;2023-12-07T07:53:24;0.20;99.90
22532;DHT22;11432;46.924;7.114;2023-12-07T07:55:49;0.20;99.90
22532;DHT22;11432;46.924;7.114;2023-12-07T07:58:15;0.20;99.90
22532;DHT22;11432;46.924;7.114;2023-12-07T08:00:40;0.20;99.90
22532;DHT22;11432;46.924;7.114;2023-12-07T08:03:06;0.20;99.90
22532;DHT22;11432;46.924;7.114;2023-12-07T08:05:32;0.30;99.90
22532;DHT22;11432;46.924;7.114;2023-12-07T08:07:58;0.30;99.90
22532;DHT22;11432;46.924;7.114;2023-12-07T08:10:24;0.40;99.90
22532;DHT22;11432;46.924;7.114;2023-12-07T08:12:49;0.40;99.90
22532;DHT22;11432;46.924;7.114;2023-12-07T08:15:16;0.40;1.00
22532;DHT22;11432;46.924;7.114;2023-12-07T08:17:41;0.50;99.90
22532;DHT22;11432;46.924;7.114;2023-12-07T08:20:08;0.50;99.90
22532;DHT22;11432;46.924;7.114;2023-12-07T08:22:39;0.50;99.90
22532;DHT22;11432;46.924;7.114;2023-12-07T08:25:06;0.60;99.90
22532;DHT22;11432;46.924;7.114;2023-12-07T08:27:32;0.60;99.90
22532;DHT22;11432;46.924;7.114;2023-12-07T08:29:58;0.70;10.10
22532;DHT22;11432;46.924;7.114;2023-12-07T08:32:24;0.80;1.00
22532;DHT22;11432;46.924;7.114;2023-12-07T08:34:51;0.70;1.00
22532;DHT22;11432;46.924;7.114;2023-12-07T08:37:17;0.80;99.90
22532;DHT22;11432;46.924;7.114;2023-12-07T08:39:43;0.80;99.90
22532;DHT22;11432;46.924;7.114;2023-12-07T08:42:08;0.60;1.00
22532;DHT22;11432;46.924;7.114;2023-12-07T08:44:34;0.60;99.90
22532;DHT22;11432;46.924;7.114;2023-12-07T08:46:59;0.50;1.00
22532;DHT22;11432;46.924;7.114;2023-12-07T08:49:25;0.50;1.00
22532;DHT22;11432;46.924;7.114;2023-12-07T08:51:51;0.60;1.00
22532;DHT22;11432;46.924;7.114;2023-12-07T08:54:18;0.60;1.00
22532;DHT22;11432;46.924;7.114;2023-12-07T08:56:44;0.60;1.00
22532;DHT22;11432;46.924;7.114;2023-12-07T08:59:11;0.50;1.00
22532;DHT22;11432;46.924;7.114;2023-12-07T09:01:36;0.40;1.00
22532;DHT22;11432;46.924;7.114;2023-12-07T09:04:02;0.50;91.30
22532;DHT22;11432;46.924;7.114;2023-12-07T09:06:28;1.10;99.90
22532;DHT22;11432;46.924;7.114;2023-12-07T09:08:54;0.70;1.00
22532;DHT22;11432;46.924;7.114;2023-12-07T09:11:20;0.40;1.00
22532;DHT22;11432;46.924;7.114;2023-12-07T09:13:46;0.00;1.00
22532;DHT22;11432;46.924;7.114;2023-12-07T09:16:12;-0.20;1.00
22532;DHT22;11432;46.924;7.114;2023-12-07T09:18:37;-0.30;1.00
22532;DHT22;11432;46.924;7.114;2023-12-07T09:21:03;-0.30;28.60
22532;DHT22;11432;46.924;7.114;2023-12-07T09:23:31;-0.30;54.90
22532;DHT22;11432;46.924;7.114;2023-12-07T09:25:56;-0.50;95.00
22532;DHT22;11432;46.924;7.114;2023-12-07T09:28:22;-0.40;99.90
22532;DHT22;11432;46.924;7.114;2023-12-07T09:30:48;-0.40;99.90
22532;DHT22;11432;46.924;7.114;2023-12-07T09:33:13;-0.20;99.90
22532;DHT22;11432;46.924;7.114;2023-12-07T09:35:39;0.00;99.90
22532;DHT22;11432;46.924;7.114;2023-12-07T09:38:04;0.00;16.80
22532;DHT22;11432;46.924;7.114;2023-12-07T09:40:30;0.10;1.00
22532;DHT22;11432;46.924;7.114;2023-12-07T09:42:56;0.10;1.00
22532;DHT22;11432;46.924;7.114;2023-12-07T09:45:22;0.10;1.00
22532;DHT22;11432;46.924;7.114;2023-12-07T09:47:52;0.30;49.20
22532;DHT22;11432;46.924;7.114;2023-12-07T09:50:19;0.20;1.00
22532;DHT22;11432;46.924;7.114;2023-12-07T09:52:48;0.20;1.00
22532;DHT22;11432;46.924;7.114;2023-12-07T09:55:19;0.10;1.00
22532;DHT22;11432;46.924;7.114;2023-12-07T09:57:48;-0.10;1.00
22532;DHT22;11432;46.924;7.114;2023-12-07T10:00:14;0.00;87.70
22532;DHT22;11432;46.924;7.114;2023-12-07T10:02:45;0.00;99.90
22532;DHT22;11432;46.924;7.114;2023-12-07T10:06:01;0.00;99.90
22532;DHT22;11432;46.924;7.114;2023-12-07T10:08:27;0.20;99.90
22532;DHT22;11432;46.924;7.114;2023-12-07T10:11:10;0.30;99.90
22532;DHT22;11432;46.924;7.114;2023-12-07T10:13:37;0.50;99.90
22532;DHT22;11432;46.924;7.114;2023-12-07T10:18:36;0.60;71.40
22532;DHT22;11432;46.924;7.114;2023-12-07T10:21:02;0.60;1.00
22532;DHT22;11432;46.924;7.114;2023-12-07T10:23:28;0.70;1.00
22532;DHT22;11432;46.924;7.114;2023-12-07T10:25:58;1.10;1.00
22532;DHT22;11432;46.924;7.114;2023-12-07T10:28:24;1.50;1.00
22532;DHT22;11432;46.924;7.114;2023-12-07T10:30:50;1.60;1.00
22532;DHT22;11432;46.924;7.114;2023-12-07T10:33:16;1.80;1.00
22532;DHT22;11432;46.924;7.114;2023-12-07T10:35:42;1.80;87.60
22532;DHT22;11432;46.924;7.114;2023-12-07T10:38:09;1.70;99.90
22532;DHT22;11432;46.924;7.114;2023-12-07T10:40:35;1.70;99.90
22532;DHT22;11432;46.924;7.114;2023-12-07T10:43:04;1.90;99.90
22532;DHT22;11432;46.924;7.114;2023-12-07T10:45:31;2.00;82.10
22532;DHT22;11432;46.924;7.114;2023-12-07T10:48:03;2.10;99.90
22532;DHT22;11432;46.924;7.114;2023-12-07T10:50:34;2.40;87.70
22532;DHT22;11432;46.924;7.114;2023-12-07T10:53:07;2.50;99.90
22532;DHT22;11432;46.924;7.114;2023-12-07T10:55:41;2.80;79.70
22532;DHT22;11432;46.924;7.114;2023-12-07T10:58:09;3.50;1.00
22532;DHT22;11432;46.924;7.114;2023-12-07T11:00:35;3.90;1.00
22532;DHT22;11432;46.924;7.114;2023-12-07T11:03:01;3.70;1.00
22532;DHT22;11432;46.924;7.114;2023-12-07T11:05:29;3.40;1.00
22532;DHT22;11432;46.924;7.114;2023-12-07T11:08:05;3.60;1.00
22532;DHT22;11432;46.924;7.114;2023-12-07T11:13:32;4.20;1.00
22532;DHT22;11432;46.924;7.114;2023-12-07T11:15:58;4.40;1.00
22532;DHT22;11432;46.924;7.114;2023-12-07T11:18:25;3.60;1.00
22532;DHT22;11432;46.924;7.114;2023-12-07T11:20:52;2.90;1.00
22532;DHT22;11432;46.924;7.114;2023-12-07T11:23:20;2.50;1.00
22532;DHT22;11432;46.924;7.114;2023-12-07T11:25:47;2.50;99.90
22532;DHT22;11432;46.924;7.114;2023-12-07T11:28:13;2.60;73.70
22532;DHT22;11432;46.924;7.114;2023-12-07T11:30:42;2.70;99.90
22532;DHT22;11432;46.924;7.114;2023-12-07T11:33:09;2.70;1.00
22532;DHT22;11432;46.924;7.114;2023-12-07T11:36:07;2.80;73.60
22532;DHT22;11432;46.924;7.114;2023-12-07T11:38:35;2.70;1.00
22532;DHT22;11432;46.924;7.114;2023-12-07T11:41:01;2.70;1.00
22532;DHT22;11432;46.924;7.114;2023-12-07T11:46:02;2.30;1.00
22532;DHT22;11432;46.924;7.114;2023-12-07T11:48:28;2.30;99.90
22532;DHT22;11432;46.924;7.114;2023-12-07T11:50:55;2.50;99.90
22532;DHT22;11432;46.924;7.114;2023-12-07T11:53:28;2.70;99.90
22532;DHT22;11432;46.924;7.114;2023-12-07T11:55:59;2.70;1.00
22532;DHT22;11432;46.924;7.114;2023-12-07T11:58:26;2.90;1.00
22532;DHT22;11432;46.924;7.114;2023-12-07T12:00:53;3.10;1.00
22532;DHT22;11432;46.924;7.114;2023-12-07T12:03:19;3.20;99.90
22532;DHT22;11432;46.924;7.114;2023-12-07T12:05:45;3.40;1.00
22532;DHT22;11432;46.924;7.114;2023-12-07T12:08:11;3.60;99.90
22532;DHT22;11432;46.924;7.114;2023-12-07T12:10:39;3.90;1.00
22532;DHT22;11432;46.924;7.114;2023-12-07T12:13:05;4.30;99.90
22532;DHT22;11432;46.924;7.114;2023-12-07T12:15:31;5.00;1.00
22532;DHT22;11432;46.924;7.114;2023-12-07T12:17:57;5.20;1.00
22532;DHT22;11432;46.924;7.114;2023-12-07T12:20:24;6.40;1.00
22532;DHT22;11432;46.924;7.114;2023-12-07T12:22:50;7.00;1.00
22532;DHT22;11432;46.924;7.114;2023-12-07T12:25:23;7.50;1.00
22532;DHT22;11432;46.924;7.114;2023-12-07T12:27:52;8.00;51.60
22532;DHT22;11432;46.924;7.114;2023-12-07T12:30:19;7.70;1.00
22532;DHT22;11432;46.924;7.114;2023-12-07T12:32:46;8.10;1.00
22532;DHT22;11432;46.924;7.114;2023-12-07T12:35:13;8.00;1.00
22532;DHT22;11432;46.924;7.114;2023-12-07T12:37:41;9.10;99.90
22532;DHT22;11432;46.924;7.114;2023-12-07T12:40:08;7.20;99.90
22532;DHT22;11432;46.924;7.114;2023-12-07T12:42:34;6.40;99.90
22532;DHT22;11432;46.924;7.114;2023-12-07T12:45:07;5.90;1.00
22532;DHT22;11432;46.924;7.114;2023-12-07T12:47:34;5.30;99.90
22532;DHT22;11432;46.924;7.114;2023-12-07T12:50:01;4.80;99.90
22532;DHT22;11432;46.924;7.114;2023-12-07T12:52:29;4.40;99.90
22532;DHT22;11432;46.924;7.114;2023-12-07T12:54:56;4.20;1.00
22532;DHT22;11432;46.924;7.114;2023-12-07T12:57:23;4.20;99.90
22532;DHT22;11432;46.924;7.114;2023-12-07T12:59:50;4.50;1.00
22532;DHT22;11432;46.924;7.114;2023-12-07T13:02:16;5.20;99.90
22532;DHT22;11432;46.924;7.114;2023-12-07T13:04:43;5.10;1.00
22532;DHT22;11432;46.924;7.114;2023-12-07T13:07:13;4.70;1.00
22532;DHT22;11432;46.924;7.114;2023-12-07T13:12:06;4.10;99.90
22532;DHT22;11432;46.924;7.114;2023-12-07T13:14:35;4.00;1.00
22532;DHT22;11432;46.924;7.114;2023-12-07T13:17:01;3.80;1.00
22532;DHT22;11432;46.924;7.114;2023-12-07T13:19:27;3.70;1.00
22532;DHT22;11432;46.924;7.114;2023-12-07T13:21:52;3.70;1.00
22532;DHT22;11432;46.924;7.114;2023-12-07T13:24:18;3.70;1.00
22532;DHT22;11432;46.924;7.114;2023-12-07T13:26:44;3.70;99.90
22532;DHT22;11432;46.924;7.114;2023-12-07T13:29:09;3.70;99.90
22532;DHT22;11432;46.924;7.114;2023-12-07T13:31:35;3.70;99.90
22532;DHT22;11432;46.924;7.114;2023-12-07T13:34:01;3.60;91.60
22532;DHT22;11432;46.924;7.114;2023-12-07T13:36:27;3.60;99.90
22532;DHT22;11432;46.924;7.114;2023-12-07T13:38:55;3.50;1.00
22532;DHT22;11432;46.924;7.114;2023-12-07T13:41:21;3.40;1.00
22532;DHT22;11432;46.924;7.114;2023-12-07T13:43:47;3.50;1.00
22532;DHT22;11432;46.924;7.114;2023-12-07T13:46:14;3.60;99.90
22532;DHT22;11432;46.924;7.114;2023-12-07T13:48:40;4.60;99.90
22532;DHT22;11432;46.924;7.114;2023-12-07T13:51:07;3.60;99.90
22532;DHT22;11432;46.924;7.114;2023-12-07T13:53:32;3.50;99.90
22532;DHT22;11432;46.924;7.114;2023-12-07T13:55:59;3.50;99.90
22532;DHT22;11432;46.924;7.114;2023-12-07T13:58:25;3.50;99.90
22532;DHT22;11432;46.924;7.114;2023-12-07T14:00:51;3.30;99.90
22532;DHT22;11432;46.924;7.114;2023-12-07T14:03:16;3.30;99.90
22532;DHT22;11432;46.924;7.114;2023-12-07T14:05:42;3.30;99.90
22532;DHT22;11432;46.924;7.114;2023-12-07T14:08:08;3.20;99.90
22532;DHT22;11432;46.924;7.114;2023-12-07T14:10:33;3.10;1.00
22532;DHT22;11432;46.924;7.114;2023-12-07T14:13:00;3.00;1.00
22532;DHT22;11432;46.924;7.114;2023-12-07T14:15:26;3.00;1.00
22532;DHT22;11432;46.924;7.114;2023-12-07T14:17:51;3.10;1.00
22532;DHT22;11432;46.924;7.114;2023-12-07T14:20:17;3.00;1.00
22532;DHT22;11432;46.924;7.114;2023-12-07T14:22:43;3.00;1.00
22532;DHT22;11432;46.924;7.114;2023-12-07T14:25:09;5.90;1.00
22532;DHT22;11432;46.924;7.114;2023-12-07T14:27:35;3.00;1.00
22532;DHT22;11432;46.924;7.114;2023-12-07T14:30:01;2.90;1.00
22532;DHT22;11432;46.924;7.114;2023-12-07T14:32:27;2.80;6.00
22532;DHT22;11432;46.924;7.114;2023-12-07T14:34:55;2.60;99.90
22532;DHT22;11432;46.924;7.114;2023-12-07T14:37:20;2.50;99.90
22532;DHT22;11432;46.924;7.114;2023-12-07T14:39:46;2.50;1.00
22532;DHT22;11432;46.924;7.114;2023-12-07T14:42:12;2.50;1.00
22532;DHT22;11432;46.924;7.114;2023-12-07T14:44:38;2.40;99.90
22532;DHT22;11432;46.924;7.114;2023-12-07T14:47:03;2.40;99.90
22532;DHT22;11432;46.924;7.114;2023-12-07T14:49:29;2.30;1.00
22532;DHT22;11432;46.924;7.114;2023-12-07T14:51:55;2.20;1.00
22532;DHT22;11432;46.924;7.114;2023-12-07T14:54:26;2.10;1.00
22532;DHT22;11432;46.924;7.114;2023-12-07T14:56:52;2.10;99.90
22532;DHT22;11432;46.924;7.114;2023-12-07T14:59:18;2.10;99.90
22532;DHT22;11432;46.924;7.114;2023-12-07T15:01:45;2.10;99.90
22532;DHT22;11432;46.924;7.114;2023-12-07T15:04:11;2.00;1.00
22532;DHT22;11432;46.924;7.114;2023-12-07T15:06:36;1.90;99.90
22532;DHT22;11432;46.924;7.114;2023-12-07T15:09:03;1.90;99.90
22532;DHT22;11432;46.924;7.114;2023-12-07T15:11:33;1.80;99.90
22532;DHT22;11432;46.924;7.114;2023-12-07T15:13:58;1.80;1.00
22532;DHT22;11432;46.924;7.114;2023-12-07T15:16:24;1.70;1.00
22532;DHT22;11432;46.924;7.114;2023-12-07T15:18:51;1.70;1.00
22532;DHT22;11432;46.924;7.114;2023-12-07T15:21:17;1.60;1.00
22532;DHT22;11432;46.924;7.114;2023-12-07T15:23:44;1.60;1.00
22532;DHT22;11432;46.924;7.114;2023-12-07T15:26:11;1.60;1.00
22532;DHT22;11432;46.924;7.114;2023-12-07T15:28:37;1.60;1.00
22532;DHT22;11432;46.924;7.114;2023-12-07T15:31:04;1.60;1.00
22532;DHT22;11432;46.924;7.114;2023-12-07T15:33:30;1.50;1.00
22532;DHT22;11432;46.924;7.114;2023-12-07T15:35:57;1.50;1.00
22532;DHT22;11432;46.924;7.114;2023-12-07T15:38:22;1.40;1.00
22532;DHT22;11432;46.924;7.114;2023-12-07T15:40:48;1.50;1.00
22532;DHT22;11432;46.924;7.114;2023-12-07T15:43:14;1.40;1.00
22532;DHT22;11432;46.924;7.114;2023-12-07T15:45:39;1.40;1.00
22532;DHT22;11432;46.924;7.114;2023-12-07T15:48:05;1.30;1.00
22532;DHT22;11432;46.924;7.114;2023-12-07T15:50:31;1.30;1.00
22532;DHT22;11432;46.924;7.114;2023-12-07T15:52:57;1.30;1.00
22532;DHT22;11432;46.924;7.114;2023-12-07T15:55:23;1.30;1.00
22532;DHT22;11432;46.924;7.114;2023-12-07T15:57:48;1.40;1.00
22532;DHT22;11432;46.924;7.114;2023-12-07T16:00:14;1.30;1.00